createdAt,value
2023-02-27T00:00:52.409Z,0.12
2023-02-27T00:01:52.179Z,0.05
2023-02-27T00:02:52.566Z,0.11
2023-02-27T00:03:52.540Z,0.13
2023-02-27T00:04:52.388Z,0.02
2023-02-27T00:05:55.254Z,0.08
2023-02-27T00:06:52.477Z,0
2023-02-27T00:07:52.423Z,-0.02
2023-02-27T00:08:52.682Z,0.01
2023-02-27T00:09:52.415Z,-0.1
2023-02-27T00:10:52.453Z,-0.12
2023-02-27T00:11:52.426Z,-0.12
2023-02-27T00:12:52.390Z,-0.15
2023-02-27T00:13:52.416Z,-0.1
2023-02-27T00:14:52.412Z,-0.13
2023-02-27T00:15:52.809Z,-0.23
2023-02-27T00:16:55.196Z,-0.21
2023-02-27T00:17:52.489Z,-0.33
2023-02-27T00:18:52.394Z,-0.35
2023-02-27T00:19:52.447Z,-0.49
2023-02-27T00:20:52.454Z,-0.51
2023-02-27T00:21:52.437Z,-0.45
2023-02-27T00:22:52.437Z,-0.51
2023-02-27T00:23:52.413Z,-0.28
2023-02-27T00:24:52.443Z,-0.33
2023-02-27T00:25:52.455Z,-0.28
2023-02-27T00:26:52.431Z,-0.3
2023-02-27T00:27:52.430Z,-0.3
2023-02-27T00:28:52.425Z,-0.33
2023-02-27T00:29:52.450Z,-0.27
2023-02-27T00:30:52.666Z,-0.17
2023-02-27T00:31:52.750Z,-0.18
2023-02-27T00:32:52.424Z,-0.2
2023-02-27T00:33:52.540Z,-0.21
2023-02-27T00:34:52.463Z,-0.18
2023-02-27T00:35:52.450Z,-0.17
2023-02-27T00:36:52.440Z,-0.07
2023-02-27T00:37:52.428Z,-0.06
2023-02-27T00:38:52.444Z,-0.06
2023-02-27T00:39:52.435Z,-0.05
2023-02-27T00:40:52.478Z,0.01
2023-02-27T00:41:52.427Z,-0.02
2023-02-27T00:42:52.452Z,-0.03
2023-02-27T00:43:52.462Z,0.01
2023-02-27T00:44:52.477Z,-0.1
2023-02-27T00:45:52.493Z,-0.06
2023-02-27T00:46:52.613Z,-0.18
2023-02-27T00:47:52.586Z,-0.12
2023-02-27T00:48:55.594Z,-0.06
2023-02-27T00:49:52.514Z,-0.07
2023-02-27T00:50:52.467Z,-0.1
2023-02-27T00:51:52.456Z,-0.13
2023-02-27T00:52:52.491Z,-0.17
2023-02-27T00:53:52.471Z,-0.21
2023-02-27T00:54:52.464Z,-0.28
2023-02-27T00:55:52.463Z,-0.36
2023-02-27T00:56:52.487Z,-0.26
2023-02-27T00:57:52.655Z,-0.33
2023-02-27T00:58:52.492Z,-0.33
2023-02-27T00:59:55.571Z,-0.3
2023-02-27T01:00:52.669Z,-0.26
2023-02-27T01:01:52.481Z,-0.26
2023-02-27T01:02:52.710Z,-0.39
2023-02-27T01:03:52.505Z,-0.45
2023-02-27T01:04:52.513Z,-0.3
2023-02-27T01:05:52.581Z,-0.39
2023-02-27T01:06:52.485Z,-0.33
2023-02-27T01:07:52.487Z,-0.36
2023-02-27T01:08:52.487Z,-0.42
2023-02-27T01:09:52.511Z,-0.45
2023-02-27T01:10:55.304Z,-0.54
2023-02-27T01:11:52.523Z,-0.51
2023-02-27T01:12:52.488Z,-0.6
2023-02-27T01:13:52.518Z,-0.51
2023-02-27T01:14:52.492Z,-0.6
2023-02-27T01:15:52.552Z,-0.64
2023-02-27T01:16:52.512Z,-0.54
2023-02-27T01:17:52.563Z,-0.63
2023-02-27T01:18:52.526Z,-0.49
2023-02-27T01:19:52.493Z,-0.53
2023-02-27T01:20:52.569Z,-0.66
2023-02-27T01:21:55.548Z,-0.64
2023-02-27T01:22:52.500Z,-0.66
2023-02-27T01:23:52.544Z,-0.63
2023-02-27T01:24:52.498Z,-0.63
2023-02-27T01:25:52.544Z,-0.82
2023-02-27T01:26:52.535Z,-0.82
2023-02-27T01:27:52.558Z,-0.91
2023-02-27T01:28:52.530Z,-0.82
2023-02-27T01:29:52.510Z,-0.85
2023-02-27T01:30:53.114Z,-1
2023-02-27T01:31:53.102Z,-0.89
2023-02-27T01:32:55.796Z,-0.94
2023-02-27T01:33:52.690Z,-0.96
2023-02-27T01:34:52.568Z,-0.94
2023-02-27T01:35:52.572Z,-1
2023-02-27T01:36:52.533Z,-0.84
2023-02-27T01:37:52.791Z,-0.94
2023-02-27T01:38:52.548Z,-0.97
2023-02-27T01:39:52.549Z,-0.93
2023-02-27T01:40:52.545Z,-0.87
2023-02-27T01:41:52.549Z,-0.99
2023-02-27T01:42:52.538Z,-1.17
2023-02-27T01:43:55.311Z,-1.06
2023-02-27T01:44:52.550Z,-1.03
2023-02-27T01:45:52.756Z,-1.11
2023-02-27T01:46:52.557Z,-1
2023-02-27T01:47:52.675Z,-1.06
2023-02-27T01:48:55.642Z,-1
2023-02-27T01:49:52.546Z,-1.01
2023-02-27T01:50:52.604Z,-0.81
2023-02-27T01:51:52.601Z,-0.94
2023-02-27T01:52:52.575Z,-0.89
2023-02-27T01:53:52.587Z,-0.84
2023-02-27T01:54:55.295Z,-0.72
2023-02-27T01:55:52.583Z,-0.69
2023-02-27T01:56:52.551Z,-0.75
2023-02-27T01:57:52.574Z,-0.7
2023-02-27T01:58:52.572Z,-0.72
2023-02-27T01:59:55.322Z,-0.67
2023-02-27T02:00:52.792Z,-0.63
2023-02-27T02:01:52.568Z,-0.6
2023-02-27T02:02:52.591Z,-0.59
2023-02-27T02:03:52.606Z,-0.67
2023-02-27T02:04:52.563Z,-0.62
2023-02-27T02:05:55.556Z,-0.64
2023-02-27T02:06:52.601Z,-0.56
2023-02-27T02:07:52.585Z,-0.69
2023-02-27T02:08:52.576Z,-0.64
2023-02-27T02:09:52.599Z,-0.63
2023-02-27T02:10:55.873Z,-0.51
2023-02-27T02:11:52.587Z,-0.51
2023-02-27T02:12:52.599Z,-0.57
2023-02-27T02:13:52.592Z,-0.57
2023-02-27T02:14:52.575Z,-0.51
2023-02-27T02:15:52.601Z,-0.48
2023-02-27T02:16:52.769Z,-0.48
2023-02-27T02:17:52.596Z,-0.46
2023-02-27T02:18:52.587Z,-0.46
2023-02-27T02:19:52.665Z,-0.45
2023-02-27T02:20:52.597Z,-0.42
2023-02-27T02:21:55.798Z,-0.33
2023-02-27T02:22:52.584Z,-0.46
2023-02-27T02:23:52.658Z,-0.46
2023-02-27T02:24:52.621Z,-0.45
2023-02-27T02:25:52.674Z,-0.53
2023-02-27T02:26:52.628Z,-0.42
2023-02-27T02:27:52.631Z,-0.48
2023-02-27T02:28:52.640Z,-0.49
2023-02-27T02:29:52.623Z,-0.42
2023-02-27T02:30:53.133Z,-0.48
2023-02-27T02:31:53.341Z,-0.48
2023-02-27T02:33:01.347Z,-0.48
2023-02-27T02:33:52.641Z,-0.48
2023-02-27T02:34:52.623Z,-0.41
2023-02-27T02:35:52.660Z,-0.39
2023-02-27T02:36:52.674Z,-0.46
2023-02-27T02:37:52.648Z,-0.39
2023-02-27T02:38:52.659Z,-0.45
2023-02-27T02:39:52.635Z,-0.48
2023-02-27T02:40:52.674Z,-0.42
2023-02-27T02:41:52.673Z,-0.48
2023-02-27T02:42:55.519Z,-0.46
2023-02-27T02:43:55.644Z,-0.53
2023-02-27T02:44:52.658Z,-0.46
2023-02-27T02:45:52.800Z,-0.46
2023-02-27T02:46:52.635Z,-0.51
2023-02-27T02:47:52.633Z,-0.41
2023-02-27T02:48:52.667Z,-0.46
2023-02-27T02:49:52.645Z,-0.45
2023-02-27T02:50:52.669Z,-0.62
2023-02-27T02:51:52.681Z,-0.54
2023-02-27T02:52:52.679Z,-0.49
2023-02-27T02:53:52.707Z,-0.69
2023-02-27T02:54:52.683Z,-0.64
2023-02-27T02:55:52.677Z,-0.64
2023-02-27T02:56:52.657Z,-0.59
2023-02-27T02:57:52.661Z,-0.62
2023-02-27T02:58:52.710Z,-0.64
2023-02-27T02:59:52.660Z,-0.62
2023-02-27T03:00:52.685Z,-0.67
2023-02-27T03:01:52.908Z,-0.62
2023-02-27T03:02:52.685Z,-0.77
2023-02-27T03:03:52.675Z,-0.81
2023-02-27T03:04:52.679Z,-0.78
2023-02-27T03:05:52.684Z,-0.85
2023-02-27T03:06:52.678Z,-0.82
2023-02-27T03:07:53.103Z,-0.82
2023-02-27T03:08:52.662Z,-0.78
2023-02-27T03:09:52.680Z,-1.03
2023-02-27T03:10:52.709Z,-0.72
2023-02-27T03:11:52.688Z,-0.77
2023-02-27T03:12:52.707Z,-0.75
2023-02-27T03:13:52.716Z,-0.72
2023-02-27T03:14:52.690Z,-0.75
2023-02-27T03:15:55.795Z,-0.72
2023-02-27T03:16:52.727Z,-0.74
2023-02-27T03:17:52.691Z,-0.62
2023-02-27T03:18:52.739Z,-0.63
2023-02-27T03:19:52.676Z,-0.69
2023-02-27T03:20:52.711Z,-0.7
2023-02-27T03:21:52.759Z,-0.67
2023-02-27T03:22:52.743Z,-0.81
2023-02-27T03:23:52.708Z,-0.78
2023-02-27T03:24:52.696Z,-0.77
2023-02-27T03:25:52.727Z,-0.89
2023-02-27T03:26:55.812Z,-0.8
2023-02-27T03:27:52.692Z,-0.81
2023-02-27T03:28:52.716Z,-0.75
2023-02-27T03:29:52.735Z,-0.84
2023-02-27T03:30:53.089Z,-0.72
2023-02-27T03:31:53.076Z,-0.78
2023-02-27T03:32:52.696Z,-0.63
2023-02-27T03:33:52.715Z,-0.72
2023-02-27T03:34:52.720Z,-0.7
2023-02-27T03:35:52.567Z,-0.81
2023-02-27T03:36:52.767Z,-0.69
2023-02-27T03:37:55.809Z,-0.75
2023-02-27T03:38:52.705Z,-0.81
2023-02-27T03:39:52.750Z,-0.7
2023-02-27T03:40:52.734Z,-0.8
2023-02-27T03:41:52.791Z,-0.64
2023-02-27T03:42:52.738Z,-0.64
2023-02-27T03:43:52.705Z,-0.62
2023-02-27T03:44:54.661Z,-0.63
2023-02-27T03:45:52.744Z,-0.66
2023-02-27T03:46:52.738Z,-0.66
2023-02-27T03:47:52.737Z,-0.64
2023-02-27T03:48:55.869Z,-0.74
2023-02-27T03:49:52.738Z,-0.67
2023-02-27T03:50:52.723Z,-0.66
2023-02-27T03:51:52.770Z,-0.69
2023-02-27T03:52:52.732Z,-0.69
2023-02-27T03:53:52.736Z,-0.8
2023-02-27T03:54:52.768Z,-0.78
2023-02-27T03:55:52.753Z,-0.63
2023-02-27T03:56:52.776Z,-0.63
2023-02-27T03:57:52.795Z,-0.6
2023-02-27T03:58:52.750Z,-0.63
2023-02-27T03:59:55.511Z,-0.81
2023-02-27T04:00:52.763Z,-0.72
2023-02-27T04:01:52.904Z,-0.72
2023-02-27T04:02:52.895Z,-0.67
2023-02-27T04:03:52.733Z,-0.78
2023-02-27T04:04:55.763Z,-0.67
2023-02-27T04:05:52.769Z,-0.72
2023-02-27T04:06:52.765Z,-0.69
2023-02-27T04:07:52.789Z,-0.63
2023-02-27T04:08:52.766Z,-0.64
2023-02-27T04:09:52.764Z,-0.62
2023-02-27T04:10:55.877Z,-0.62
2023-02-27T04:11:52.802Z,-0.69
2023-02-27T04:12:52.790Z,-0.69
2023-02-27T04:13:52.886Z,-0.63
2023-02-27T04:14:52.781Z,-0.53
2023-02-27T04:15:55.954Z,-0.69
2023-02-27T04:16:52.817Z,-0.64
2023-02-27T04:17:52.809Z,-0.67
2023-02-27T04:18:54.327Z,-0.62
2023-02-27T04:19:52.779Z,-0.64
2023-02-27T04:20:52.784Z,-0.66
2023-02-27T04:21:55.584Z,-0.64
2023-02-27T04:22:52.787Z,-0.6
2023-02-27T04:23:52.880Z,-0.67
2023-02-27T04:24:52.833Z,-0.7
2023-02-27T04:25:52.783Z,-0.67
2023-02-27T04:26:55.881Z,-0.66
2023-02-27T04:27:52.804Z,-0.82
2023-02-27T04:28:52.797Z,-0.78
2023-02-27T04:29:52.998Z,-0.69
2023-02-27T04:30:53.126Z,-0.66
2023-02-27T04:31:53.663Z,-0.78
2023-02-27T04:32:52.985Z,-0.69
2023-02-27T04:33:52.833Z,-0.75
2023-02-27T04:34:52.812Z,-0.63
2023-02-27T04:35:52.814Z,-0.67
2023-02-27T04:36:52.792Z,-0.72
2023-02-27T04:37:55.667Z,-0.74
2023-02-27T04:38:52.804Z,-0.72
2023-02-27T04:39:52.863Z,-0.75
2023-02-27T04:40:52.806Z,-0.82
2023-02-27T04:41:52.830Z,-0.82
2023-02-27T04:42:52.843Z,-0.84
2023-02-27T04:43:52.847Z,-0.82
2023-02-27T04:44:52.832Z,-0.78
2023-02-27T04:45:53.080Z,-0.81
2023-02-27T04:46:52.831Z,-0.72
2023-02-27T04:47:52.851Z,-0.84
2023-02-27T04:48:53.034Z,-0.78
2023-02-27T04:49:52.860Z,-0.77
2023-02-27T04:50:52.827Z,-0.89
2023-02-27T04:51:52.862Z,-0.84
2023-02-27T04:52:52.846Z,-0.78
2023-02-27T04:53:52.835Z,-0.82
2023-02-27T04:54:52.828Z,-0.78
2023-02-27T04:55:52.849Z,-0.78
2023-02-27T04:56:52.861Z,-0.81
2023-02-27T04:57:52.863Z,-0.82
2023-02-27T04:58:52.858Z,-0.72
2023-02-27T04:59:55.701Z,-0.82
2023-02-27T05:00:52.859Z,-0.87
2023-02-27T05:01:53.295Z,-0.82
2023-02-27T05:02:53.036Z,-0.77
2023-02-27T05:03:52.946Z,-0.64
2023-02-27T05:04:52.854Z,-0.7
2023-02-27T05:05:52.877Z,-0.64
2023-02-27T05:06:52.865Z,-0.63
2023-02-27T05:07:52.865Z,-0.72
2023-02-27T05:08:52.888Z,-0.69
2023-02-27T05:09:52.876Z,-0.62
2023-02-27T05:10:56.004Z,-0.69
2023-02-27T05:11:52.880Z,-0.69
2023-02-27T05:12:52.886Z,-0.74
2023-02-27T05:13:52.879Z,-0.84
2023-02-27T05:14:52.904Z,-0.78
2023-02-27T05:15:52.974Z,-0.78
2023-02-27T05:16:52.956Z,-0.8
2023-02-27T05:17:53.094Z,-0.87
2023-02-27T05:18:52.865Z,-0.96
2023-02-27T05:19:52.985Z,-0.93
2023-02-27T05:20:52.871Z,-0.84
2023-02-27T05:21:52.906Z,-0.99
2023-02-27T05:22:52.886Z,-0.93
2023-02-27T05:23:52.875Z,-0.93
2023-02-27T05:24:52.882Z,-0.99
2023-02-27T05:25:52.891Z,-0.91
2023-02-27T05:26:52.901Z,-0.94
2023-02-27T05:27:52.895Z,-0.93
2023-02-27T05:28:52.878Z,-0.93
2023-02-27T05:29:52.897Z,-0.85
2023-02-27T05:30:52.915Z,-0.94
2023-02-27T05:31:53.342Z,-1
2023-02-27T05:32:52.934Z,-0.91
2023-02-27T05:33:52.909Z,-0.89
2023-02-27T05:34:52.899Z,-0.99
2023-02-27T05:35:53.077Z,-0.94
2023-02-27T05:36:52.899Z,-1
2023-02-27T05:37:52.967Z,-1.12
2023-02-27T05:38:52.961Z,-1.19
2023-02-27T05:39:52.899Z,-1.14
2023-02-27T05:40:52.943Z,-1.12
2023-02-27T05:41:53.014Z,-0.93
2023-02-27T05:42:55.944Z,-1.07
2023-02-27T05:43:52.907Z,-1.09
2023-02-27T05:44:52.919Z,-1.12
2023-02-27T05:45:53.081Z,-1.18
2023-02-27T05:46:52.949Z,-1.15
2023-02-27T05:47:52.924Z,-1.09
2023-02-27T05:48:52.927Z,-1.07
2023-02-27T05:49:52.913Z,-1.11
2023-02-27T05:50:53.922Z,-1.21
2023-02-27T05:51:53.220Z,-1.18
2023-02-27T05:52:52.949Z,-1.11
2023-02-27T05:53:56.065Z,-1.09
2023-02-27T05:54:56.275Z,-1.15
2023-02-27T05:55:52.954Z,-1.11
2023-02-27T05:56:52.938Z,-1.14
2023-02-27T05:57:52.984Z,-1.18
2023-02-27T05:58:52.945Z,-1.09
2023-02-27T05:59:52.948Z,-1.09
2023-02-27T06:00:52.946Z,-1.24
2023-02-27T06:01:53.071Z,-1.11
2023-02-27T06:02:52.979Z,-1.09
2023-02-27T06:03:52.936Z,-1.03
2023-02-27T06:04:55.999Z,-1.06
2023-02-27T06:05:52.983Z,-1.15
2023-02-27T06:06:52.951Z,-1.09
2023-02-27T06:07:52.967Z,-1.09
2023-02-27T06:08:52.953Z,-1.11
2023-02-27T06:09:53.024Z,-1.03
2023-02-27T06:10:52.954Z,-1.07
2023-02-27T06:11:52.999Z,-1.04
2023-02-27T06:12:53.031Z,-1.01
2023-02-27T06:13:52.956Z,-1.04
2023-02-27T06:14:52.965Z,-1.07
2023-02-27T06:15:55.800Z,-1.09
2023-02-27T06:16:53.187Z,-0.99
2023-02-27T06:17:52.994Z,-1
2023-02-27T06:18:53.022Z,-1.14
2023-02-27T06:19:52.984Z,-1.01
2023-02-27T06:20:52.998Z,-1.01
2023-02-27T06:21:52.982Z,-1.07
2023-02-27T06:22:53.012Z,-1.04
2023-02-27T06:23:52.981Z,-1.06
2023-02-27T06:24:52.957Z,-1.09
2023-02-27T06:25:53.051Z,-1.03
2023-02-27T06:26:56.123Z,-1.25
2023-02-27T06:27:52.992Z,-1.04
2023-02-27T06:28:52.999Z,-1.01
2023-02-27T06:29:52.985Z,-1.11
2023-02-27T06:30:53.093Z,-1.15
2023-02-27T06:31:56.169Z,-1.21
2023-02-27T06:32:52.992Z,-0.99
2023-02-27T06:33:53.016Z,-1.14
2023-02-27T06:34:53.002Z,-1.09
2023-02-27T06:35:53.287Z,-1.03
2023-02-27T06:36:53.007Z,-0.96
2023-02-27T06:37:55.855Z,-1
2023-02-27T06:38:53.012Z,-1.03
2023-02-27T06:39:53.063Z,-0.85
2023-02-27T06:40:52.985Z,-0.93
2023-02-27T06:41:53.020Z,-0.8
2023-02-27T06:42:56.918Z,-0.81
2023-02-27T06:43:52.983Z,-0.87
2023-02-27T06:44:53.002Z,-0.78
2023-02-27T06:45:53.080Z,-0.66
2023-02-27T06:46:52.995Z,-0.59
2023-02-27T06:47:53.133Z,-0.64
2023-02-27T06:48:56.024Z,-0.62
2023-02-27T06:49:53.014Z,-0.53
2023-02-27T06:50:52.877Z,-0.42
2023-02-27T06:51:53.011Z,-0.38
2023-02-27T06:52:53.083Z,-0.33
2023-02-27T06:53:56.159Z,-0.41
2023-02-27T06:54:53.007Z,-0.42
2023-02-27T06:55:53.009Z,-0.23
2023-02-27T06:56:53.035Z,-0.36
2023-02-27T06:57:52.901Z,-0.18
2023-02-27T06:58:53.024Z,-0.07
2023-02-27T06:59:55.909Z,0.01
2023-02-27T07:00:53.038Z,0.24
2023-02-27T07:01:53.025Z,0.18
2023-02-27T07:02:53.082Z,0.31
2023-02-27T07:03:54.105Z,0.52
2023-02-27T07:04:56.351Z,0.68
2023-02-27T07:05:53.091Z,0.74
2023-02-27T07:07:41.006Z,0.56
2023-02-27T07:07:53.114Z,0.67
2023-02-27T07:09:10.750Z,0.68
2023-02-27T07:09:53.224Z,0.92
2023-02-27T07:10:53.045Z,0.91
2023-02-27T07:11:53.049Z,0.96
2023-02-27T07:12:53.181Z,0.95
2023-02-27T07:13:53.064Z,0.95
2023-02-27T07:14:53.059Z,1.21
2023-02-27T07:15:56.285Z,1.13
2023-02-27T07:16:53.049Z,1.2
2023-02-27T07:17:53.125Z,1.18
2023-02-27T07:18:53.040Z,1.16
2023-02-27T07:19:53.066Z,1.22
2023-02-27T07:20:53.072Z,1.28
2023-02-27T07:21:53.061Z,1.5
2023-02-27T07:22:53.163Z,1.7
2023-02-27T07:23:53.120Z,1.93
2023-02-27T07:24:53.085Z,2.18
2023-02-27T07:25:53.066Z,2.01
2023-02-27T07:26:56.105Z,2.16
2023-02-27T07:27:53.176Z,2.26
2023-02-27T07:28:53.074Z,2.52
2023-02-27T07:29:53.085Z,2.65
2023-02-27T07:30:53.249Z,2.58
2023-02-27T07:31:53.314Z,2.97
2023-02-27T07:32:53.128Z,2.94
2023-02-27T07:33:53.067Z,3.12
2023-02-27T07:34:53.121Z,2.64
2023-02-27T07:35:53.459Z,2.88
2023-02-27T07:36:53.115Z,2.87
2023-02-27T07:37:54.712Z,2.98
2023-02-27T07:38:53.099Z,3.16
2023-02-27T07:39:53.086Z,3.09
2023-02-27T07:40:53.099Z,3.12
2023-02-27T07:41:53.101Z,3.05
2023-02-27T07:42:55.455Z,3.31
2023-02-27T07:43:53.073Z,3.56
2023-02-27T07:44:53.109Z,3.86
2023-02-27T07:45:53.130Z,3.91
2023-02-27T07:46:53.524Z,4.24
2023-02-27T07:47:53.119Z,4.42
2023-02-27T07:48:53.098Z,4.31
2023-02-27T07:49:53.101Z,4.45
2023-02-27T07:50:53.124Z,4.53
2023-02-27T07:51:53.127Z,4.36
2023-02-27T07:52:53.160Z,4
2023-02-27T07:53:53.189Z,4.32
2023-02-27T07:54:53.117Z,4.13
2023-02-27T07:55:53.143Z,4.06
2023-02-27T07:56:53.149Z,4.03
2023-02-27T07:57:53.122Z,4.43
2023-02-27T07:58:53.720Z,4.46
2023-02-27T07:59:53.147Z,4.04
2023-02-27T08:00:53.141Z,4.32
2023-02-27T08:01:53.280Z,4.75
2023-02-27T08:02:53.313Z,5.18
2023-02-27T08:03:53.145Z,4.92
2023-02-27T08:04:53.291Z,5.04
2023-02-27T08:05:53.129Z,5.05
2023-02-27T08:06:53.155Z,5.26
2023-02-27T08:07:53.119Z,5.31
2023-02-27T08:08:53.117Z,5.58
2023-02-27T08:09:55.983Z,5.49
2023-02-27T08:10:53.218Z,5.31
2023-02-27T08:11:53.908Z,5.12
2023-02-27T08:12:53.169Z,5
2023-02-27T08:14:05.699Z,5.52
2023-02-27T08:14:53.156Z,5.59
2023-02-27T08:15:53.273Z,5.64
2023-02-27T08:16:53.152Z,5.73
2023-02-27T08:17:53.158Z,6.07
2023-02-27T08:18:53.196Z,6.32
2023-02-27T08:19:53.290Z,5.77
2023-02-27T08:20:56.229Z,5.46
2023-02-27T08:21:53.161Z,5.87
2023-02-27T08:22:53.359Z,5.77
2023-02-27T08:23:53.166Z,6.02
2023-02-27T08:24:53.173Z,6.12
2023-02-27T08:25:53.244Z,6.12
2023-02-27T08:26:53.179Z,6.05
2023-02-27T08:27:53.219Z,6.17
2023-02-27T08:28:53.204Z,5.97
2023-02-27T08:29:53.304Z,6.38
2023-02-27T08:30:53.236Z,6.53
2023-02-27T08:31:56.372Z,6.34
2023-02-27T08:32:53.167Z,6.41
2023-02-27T08:34:12.101Z,6.56
2023-02-27T08:34:53.697Z,6.22
2023-02-27T08:35:53.307Z,6.34
2023-02-27T08:36:53.177Z,6.07
2023-02-27T08:37:53.174Z,6.46
2023-02-27T08:38:53.159Z,6.67
2023-02-27T08:39:53.205Z,6.7
2023-02-27T08:40:53.188Z,6.8
2023-02-27T08:41:53.196Z,6.26
2023-02-27T08:42:56.216Z,6.22
2023-02-27T08:43:53.195Z,6.2
2023-02-27T08:44:53.201Z,5.47
2023-02-27T08:45:53.543Z,5.77
2023-02-27T08:46:53.200Z,5.46
2023-02-27T08:47:53.191Z,5.88
2023-02-27T08:48:53.209Z,5.33
2023-02-27T08:49:53.212Z,5.43
2023-02-27T08:50:53.207Z,5.8
2023-02-27T08:51:53.186Z,5.26
2023-02-27T08:52:53.208Z,5.79
2023-02-27T08:53:56.005Z,5.97
2023-02-27T08:54:53.205Z,5.76
2023-02-27T08:55:53.254Z,5.16
2023-02-27T08:56:53.221Z,5.65
2023-02-27T08:57:53.210Z,5.64
2023-02-27T08:58:53.840Z,5.98
2023-02-27T08:59:53.393Z,6.19
2023-02-27T09:00:53.419Z,6.29
2023-02-27T09:01:53.267Z,6.13
2023-02-27T09:02:53.842Z,6.43
2023-02-27T09:03:53.252Z,5.81
2023-02-27T09:04:56.363Z,5.4
2023-02-27T09:05:53.242Z,5.16
2023-02-27T09:06:53.198Z,5.1
2023-02-27T09:07:53.198Z,5.74
2023-02-27T09:08:53.213Z,5.77
2023-02-27T09:09:56.288Z,5.2
2023-02-27T09:10:53.218Z,5.13
2023-02-27T09:11:53.230Z,5.01
2023-02-27T09:12:53.214Z,5.18
2023-02-27T09:13:53.327Z,5.34
2023-02-27T09:14:53.221Z,5.12
2023-02-27T09:15:56.242Z,5.29
2023-02-27T09:16:53.440Z,5.55
2023-02-27T09:17:53.223Z,5.77
2023-02-27T09:18:53.268Z,6.07
2023-02-27T09:19:53.368Z,6.2
2023-02-27T09:20:56.395Z,6.65
2023-02-27T09:21:53.238Z,6.2
2023-02-27T09:22:53.278Z,6.7
2023-02-27T09:23:53.250Z,6.95
2023-02-27T09:24:53.355Z,6.68
2023-02-27T09:25:53.233Z,6.52
2023-02-27T09:26:57.381Z,6.75
2023-02-27T09:27:53.215Z,6.78
2023-02-27T09:28:53.269Z,6.59
2023-02-27T09:29:53.254Z,6.5
2023-02-27T09:30:53.254Z,6.35
2023-02-27T09:31:56.671Z,6.05
2023-02-27T09:32:53.538Z,6.07
2023-02-27T09:33:53.289Z,5.88
2023-02-27T09:34:53.240Z,5.92
2023-02-27T09:35:53.519Z,6.22
2023-02-27T09:36:53.272Z,6.6
2023-02-27T09:37:53.246Z,6.6
2023-02-27T09:38:53.278Z,6.26
2023-02-27T09:39:53.365Z,6.46
2023-02-27T09:40:53.263Z,6.44
2023-02-27T09:41:53.297Z,6.57
2023-02-27T09:42:56.193Z,6.36
2023-02-27T09:43:53.280Z,6.26
2023-02-27T09:44:53.242Z,6.17
2023-02-27T09:45:53.579Z,5.79
2023-02-27T09:46:53.248Z,6.1
2023-02-27T09:47:53.277Z,6.26
2023-02-27T09:48:53.319Z,6.22
2023-02-27T09:49:53.250Z,5.84
2023-02-27T09:50:53.257Z,6.41
2023-02-27T09:51:55.593Z,6.57
2023-02-27T09:52:53.327Z,6.5
2023-02-27T09:53:54.730Z,6.92
2023-02-27T09:54:53.253Z,6.92
2023-02-27T09:55:53.267Z,6.95
2023-02-27T09:56:53.269Z,7.28
2023-02-27T09:57:53.278Z,7.55
2023-02-27T09:58:53.301Z,7.22
2023-02-27T09:59:55.111Z,7.29
2023-02-27T10:00:53.281Z,7.62
2023-02-27T10:01:53.297Z,7.69
2023-02-27T10:02:53.365Z,8.14
2023-02-27T10:03:53.320Z,8.11
2023-02-27T10:04:57.083Z,8.26
2023-02-27T10:05:53.280Z,8.49
2023-02-27T10:06:53.307Z,8.21
2023-02-27T10:07:53.294Z,8.46
2023-02-27T10:08:53.329Z,8.64
2023-02-27T10:09:53.301Z,8.79
2023-02-27T10:10:53.303Z,8.79
2023-02-27T10:11:53.326Z,8.6
2023-02-27T10:12:53.347Z,8.45
2023-02-27T10:13:53.316Z,8.75
2023-02-27T10:14:53.302Z,8.82
2023-02-27T10:15:53.298Z,8.99
2023-02-27T10:16:53.501Z,9.12
2023-02-27T10:17:53.371Z,9.05
2023-02-27T10:18:53.317Z,8.14
2023-02-27T10:19:53.329Z,8.09
2023-02-27T10:20:53.331Z,8.24
2023-02-27T10:21:53.312Z,8.79
2023-02-27T10:22:53.323Z,8.95
2023-02-27T10:23:53.363Z,8.95
2023-02-27T10:24:53.456Z,9.13
2023-02-27T10:25:53.325Z,9.34
2023-02-27T10:26:53.321Z,9.08
2023-02-27T10:27:53.311Z,9.02
2023-02-27T10:28:53.371Z,9.45
2023-02-27T10:29:53.326Z,8.97
2023-02-27T10:30:53.495Z,8.96
2023-02-27T10:31:53.478Z,8.97
2023-02-27T10:32:53.344Z,9.42
2023-02-27T10:33:53.430Z,9.52
2023-02-27T10:34:53.405Z,9.16
2023-02-27T10:35:53.596Z,9.37
2023-02-27T10:36:56.392Z,9.56
2023-02-27T10:37:53.317Z,9.36
2023-02-27T10:38:53.348Z,9.45
2023-02-27T10:39:53.346Z,9.66
2023-02-27T10:40:53.372Z,9.82
2023-02-27T10:41:53.328Z,9.9
2023-02-27T10:42:53.345Z,9.82
2023-02-27T10:43:53.357Z,10.07
2023-02-27T10:44:53.349Z,10.27
2023-02-27T10:45:53.661Z,9.52
2023-02-27T10:46:56.352Z,9.81
2023-02-27T10:47:56.353Z,9.69
2023-02-27T10:48:53.372Z,9.48
2023-02-27T10:49:53.396Z,8.81
2023-02-27T10:50:53.365Z,8.84
2023-02-27T10:51:53.433Z,8.39
2023-02-27T10:52:53.354Z,8.09
2023-02-27T10:53:53.376Z,8.02
2023-02-27T10:54:53.393Z,7.78
2023-02-27T10:55:53.356Z,7.51
2023-02-27T10:56:53.402Z,7.15
2023-02-27T10:57:53.373Z,7.01
2023-02-27T10:58:56.156Z,6.72
2023-02-27T10:59:53.366Z,6.54
2023-02-27T11:00:53.370Z,6.56
2023-02-27T11:01:53.471Z,6.22
2023-02-27T11:02:53.359Z,6.2
2023-02-27T11:03:53.382Z,6.19
2023-02-27T11:04:53.483Z,6.26
2023-02-27T11:05:53.390Z,6.19
2023-02-27T11:06:53.370Z,6.15
2023-02-27T11:07:53.430Z,6.16
2023-02-27T11:08:54.926Z,5.94
2023-02-27T11:09:56.275Z,5.8
2023-02-27T11:10:53.381Z,5.49
2023-02-27T11:11:53.389Z,5.62
2023-02-27T11:12:53.480Z,5.44
2023-02-27T11:13:53.387Z,5.47
2023-02-27T11:14:53.402Z,5.44
2023-02-27T11:15:53.558Z,5.36
2023-02-27T11:16:53.378Z,5.47
2023-02-27T11:17:53.384Z,5.31
2023-02-27T11:18:53.413Z,5.43
2023-02-27T11:19:53.389Z,5.7
2023-02-27T11:20:56.163Z,5.87
2023-02-27T11:21:53.418Z,6.13
2023-02-27T11:22:53.400Z,6.16
2023-02-27T11:23:53.609Z,6.1
2023-02-27T11:24:53.405Z,6.07
2023-02-27T11:25:56.222Z,5.56
2023-02-27T11:26:53.421Z,5.29
2023-02-27T11:27:53.400Z,5.16
2023-02-27T11:28:53.434Z,5.19
2023-02-27T11:29:53.570Z,5.18
2023-02-27T11:30:53.516Z,5.31
2023-02-27T11:31:56.659Z,5.2
2023-02-27T11:32:53.439Z,5.52
2023-02-27T11:33:53.434Z,5.81
2023-02-27T11:34:53.385Z,6.07
2023-02-27T11:36:02.001Z,6.36
2023-02-27T11:36:56.173Z,6.39
2023-02-27T11:37:53.414Z,6.16
2023-02-27T11:38:53.438Z,6.1
2023-02-27T11:39:53.492Z,6.09
2023-02-27T11:40:53.463Z,6.06
2023-02-27T11:41:53.505Z,6.02
2023-02-27T11:42:56.410Z,6.01
2023-02-27T11:43:53.418Z,6.12
2023-02-27T11:44:55.945Z,6.02
2023-02-27T11:46:51.363Z,5.97
2023-02-27T11:47:01.182Z,5.95
2023-02-27T11:48:03.811Z,5.94
2023-02-27T11:49:03.955Z,5.88
2023-02-27T11:50:01.090Z,5.9
2023-02-27T11:51:01.144Z,5.8
2023-02-27T11:52:01.153Z,5.54
2023-02-27T11:53:01.111Z,5.55
2023-02-27T11:54:01.126Z,5.69
2023-02-27T11:55:01.140Z,5.77
2023-02-27T11:56:01.136Z,5.76
2023-02-27T11:57:01.131Z,6.02
2023-02-27T11:58:01.121Z,5.98
2023-02-27T11:59:01.150Z,5.87
2023-02-27T12:00:03.906Z,5.76
2023-02-27T12:01:01.120Z,5.92
2023-02-27T12:02:01.084Z,6.02
2023-02-27T12:03:01.336Z,5.94
2023-02-27T12:04:01.261Z,5.97
2023-02-27T12:05:01.103Z,5.99
2023-02-27T12:06:01.107Z,5.91
2023-02-27T12:07:01.154Z,5.91
2023-02-27T12:08:01.128Z,5.99
2023-02-27T12:09:01.139Z,5.97
2023-02-27T12:10:01.110Z,5.91
2023-02-27T12:11:17.260Z,5.83
2023-02-27T12:12:01.083Z,6.16
2023-02-27T12:13:01.124Z,6.06
2023-02-27T12:14:03.057Z,6.02
2023-02-27T12:15:01.231Z,6.01
2023-02-27T12:16:05.201Z,6.09
2023-02-27T12:17:01.119Z,5.99
2023-02-27T12:18:01.117Z,6.16
2023-02-27T12:19:01.187Z,6.29
2023-02-27T12:20:01.147Z,6.5
2023-02-27T12:21:01.140Z,6.7
2023-02-27T12:22:01.171Z,6.52
2023-02-27T12:23:01.119Z,6.38
2023-02-27T12:24:01.183Z,6.32
2023-02-27T12:25:01.144Z,6.16
2023-02-27T12:26:01.149Z,6.19
2023-02-27T12:27:01.267Z,6.2
2023-02-27T12:28:01.164Z,6.07
2023-02-27T12:29:01.239Z,5.91
2023-02-27T12:30:01.134Z,5.9
2023-02-27T12:31:01.134Z,5.87
2023-02-27T12:32:01.617Z,5.76
2023-02-27T12:33:01.140Z,5.64
2023-02-27T12:34:01.143Z,5.58
2023-02-27T12:35:01.198Z,5.51
2023-02-27T12:36:01.322Z,5.44
2023-02-27T12:37:01.176Z,5.33
2023-02-27T12:38:01.134Z,5.4
2023-02-27T12:39:01.166Z,5.15
2023-02-27T12:40:01.199Z,5.4
2023-02-27T12:41:01.129Z,5.49
2023-02-27T12:42:01.164Z,5.59
2023-02-27T12:43:03.995Z,5.55
2023-02-27T12:44:01.179Z,5.72
2023-02-27T12:45:01.170Z,5.83
2023-02-27T12:46:01.632Z,6.12
2023-02-27T12:47:01.151Z,6.43
2023-02-27T12:48:03.946Z,6.56
2023-02-27T12:49:01.188Z,6.7
2023-02-27T12:50:01.158Z,6.75
2023-02-27T12:51:01.169Z,6.56
2023-02-27T12:52:01.163Z,6.72
2023-02-27T12:53:01.176Z,6.74
2023-02-27T12:54:04.053Z,6.56
2023-02-27T12:55:01.165Z,6.72
2023-02-27T12:56:01.283Z,6.53
2023-02-27T12:57:01.177Z,6.6
2023-02-27T12:58:01.185Z,6.6
2023-02-27T12:59:04.245Z,6.49
2023-02-27T13:00:01.153Z,6.5
2023-02-27T13:01:01.291Z,6.32
2023-02-27T13:02:01.182Z,6.17
2023-02-27T13:03:01.224Z,6.31
2023-02-27T13:04:01.340Z,6.2
2023-02-27T13:05:04.267Z,6.26
2023-02-27T13:06:01.251Z,5.94
2023-02-27T13:07:01.183Z,6.06
2023-02-27T13:08:01.193Z,6.22
2023-02-27T13:09:01.186Z,6.44